AKST,Max TemperatureF,Mean TemperatureF,Min TemperatureF,Max Dew PointF,MeanDew PointF,Min DewpointF,Max Humidity, Mean Humidity, Min Humidity, Max Sea Level PressureIn, Mean Sea Level PressureIn, Min Sea Level PressureIn, Max VisibilityMiles, Mean VisibilityMiles, Min VisibilityMiles, Max Wind SpeedMPH, Mean Wind SpeedMPH, Max Gust SpeedMPH,PrecipitationIn, CloudCover, Events, WindDirDegrees
2011-11-1,3,-1,-5,0,-5,-9,92,82,72,29.81,29.68,29.61,10,5,0,18,7,23,0.00,8,,191
2011-11-2,5,-2,-9,1,-9,-27,92,75,41,30.12,30.07,29.91,10,5,1,21,8,22,0.00,7,,189
2011-11-3,-2,-8,-13,-8,-17,-22,84,67,59,30.08,29.86,29.48,10,8,2,20,9,,0.00,5,,193
2011-11-4,6,4,3,3,-2,-6,92,74,66,29.50,29.35,29.28,10,4,1,18,13,24,0.00,8,,50
2011-11-5,8,-5,-18,1,-14,-29,85,67,52,29.66,29.61,29.50,10,8,2,13,6,,0.00,3,,44
2011-11-6,1,-10,-20,-6,-15,-27,78,65,55,29.45,29.26,29.18,10,9,4,13,4,,0.00,5,,187
2011-11-7,1,-2,-5,-6,-9,-18,78,68,55,29.69,29.50,29.30,10,7,1,21,13,25,0.00,7,,44
2011-11-8,1,-6,-13,-6,-15,-24,78,63,49,30.05,29.97,29.82,10,9,2,21,8,30,0.00,4,,330
2011-11-9,6,-2,-11,0,-13,-26,72,60,49,29.86,29.55,29.32,10,6,1,23,17,34,0.00,4,,307
2011-11-10,6,4,1,3,-4,-11,92,72,44,29.40,29.25,29.17,10,10,4,20,14,25,0.00,7,,265
2011-11-11,8,6,5,5,2,0,85,82,78,29.53,29.46,29.28,10,9,1,16,9,20,0.00,8,,256
2011-11-12,-2,-9,-16,-8,-19,-26,84,80,58,29.20,29.10,29.05,10,4,0,25,17,30,0.00,8,,140
2011-11-13,-13,-16,-18,-24,-26,-29,64,57,53,29.60,29.44,29.25,10,9,4,20,15,24,0.00,6,,148
2011-11-14,-7,-12,-18,-15,-23,-27,77,60,49,29.85,29.69,29.62,10,4,1,18,8,24,0.00,8,,122
2011-11-15,0,-7,-14,-8,-16,-24,72,63,51,30.11,29.97,29.88,8,2,1,17,7,28,0.00,8,,120
2011-11-16,0,-7,-14,-9,-16,-26,66,61,49,30.40,30.27,30.15,10,6,1,17,10,22,0.00,7,,126
2011-11-17,-5,-10,-14,-11,-18,-26,77,64,53,30.47,30.44,30.41,10,9,2,8,4,,0.00,6,,100
2011-11-18,-18,-22,-25,-26,-28,-29,76,65,63,30.34,30.26,30.24,10,9,1,4,0,,0.00,0,,285
2011-11-19,-23,-25,-27,-29,-29,-29,76,76,76,30.24,30.09,29.87,10,10,2,4,0,,0.00,0,,290
2011-11-20,-4,-11,-18,-9,-19,-27,84,63,49,29.73,29.59,29.52,10,6,2,17,8,24,0.00,7,,112
2011-11-21,-16,-20,-23,-29,-29,-29,58,55,53,29.57,29.49,29.46,9,4,1,23,17,29,0.00,8,,134
2011-11-22,-23,-25,-27,,,,,,,29.61,29.58,29.53,10,4,1,23,19,30,0.00,8,,136
2011-11-23,-23,-26,-29,,,,,,,29.49,29.40,29.34,10,8,3,16,12,21,0.00,0,,119
2011-11-24,-20,-24,-29,,,,,,,29.41,29.36,29.34,10,8,3,15,11,20,0.00,4,,128
2011-11-25,-16,-20,-23,-29,-29,-29,63,58,53,29.69,29.58,29.46,10,9,3,13,7,,0.00,6,,103
2011-11-26,-20,-24,-27,-29,-29,-29,63,63,63,29.74,29.69,29.61,10,10,2,7,4,,0.00,2,,90
2011-11-27,-23,-26,-29,,,,,,,29.58,29.53,29.50,10,10,6,7,5,,0.00,0,,86
2011-11-28,-27,-30,-32,,,,,,,29.55,29.51,29.49,10,8,3,5,3,,0.00,0,,86
2011-11-29,-5,-16,-27,-11,-17,-29,83,68,59,29.76,29.70,29.61,10,8,2,16,6,23,0.00,7,,243
2011-11-30,0,-7,-14,-8,-17,-26,77,65,58,29.73,29.59,29.46,10,7,2,12,5,,0.00,7,,108